sensor_id;sensor_type;location;lat;lon;timestamp;P1;durP1;ratioP1;P2;durP2;ratioP2
26411;SDS011;59168;;;2022-07-06T00:01:48;1.77;;;0.80;;
26411;SDS011;59168;;;2022-07-06T00:04:15;2.40;;;1.02;;
26411;SDS011;59168;;;2022-07-06T00:06:41;3.72;;;1.23;;
26411;SDS011;59168;;;2022-07-06T00:09:07;2.40;;;1.30;;
26411;SDS011;59168;;;2022-07-06T00:11:33;5.45;;;1.40;;
26411;SDS011;59168;;;2022-07-06T00:13:59;3.72;;;1.17;;
26411;SDS011;59168;;;2022-07-06T00:16:24;3.15;;;1.17;;
26411;SDS011;59168;;;2022-07-06T00:18:50;6.43;;;1.40;;
26411;SDS011;59168;;;2022-07-06T00:21:16;7.30;;;1.10;;
26411;SDS011;59168;;;2022-07-06T00:23:42;2.97;;;0.95;;
26411;SDS011;59168;;;2022-07-06T00:26:08;1.05;;;0.90;;
26411;SDS011;59168;;;2022-07-06T00:28:34;0.75;;;0.75;;
26411;SDS011;59168;;;2022-07-06T00:31:00;4.25;;;1.30;;
26411;SDS011;59168;;;2022-07-06T00:33:25;3.55;;;1.00;;
26411;SDS011;59168;;;2022-07-06T00:35:51;3.95;;;1.00;;
26411;SDS011;59168;;;2022-07-06T00:38:17;2.33;;;0.93;;
26411;SDS011;59168;;;2022-07-06T00:40:43;2.05;;;1.00;;
26411;SDS011;59168;;;2022-07-06T00:43:08;2.95;;;1.00;;
26411;SDS011;59168;;;2022-07-06T00:45:34;2.53;;;0.85;;
26411;SDS011;59168;;;2022-07-06T00:48:00;2.38;;;0.82;;
26411;SDS011;59168;;;2022-07-06T00:50:25;2.95;;;1.30;;
26411;SDS011;59168;;;2022-07-06T00:52:57;2.83;;;1.17;;
26411;SDS011;59168;;;2022-07-06T00:55:29;2.50;;;1.13;;
26411;SDS011;59168;;;2022-07-06T00:58:04;2.70;;;0.80;;
26411;SDS011;59168;;;2022-07-06T01:00:31;0.80;;;0.65;;
26411;SDS011;59168;;;2022-07-06T01:02:57;2.75;;;0.85;;
26411;SDS011;59168;;;2022-07-06T01:05:22;3.10;;;1.00;;
26411;SDS011;59168;;;2022-07-06T01:07:50;3.88;;;1.00;;
26411;SDS011;59168;;;2022-07-06T01:10:17;2.45;;;1.17;;
26411;SDS011;59168;;;2022-07-06T01:12:44;5.00;;;1.42;;
26411;SDS011;59168;;;2022-07-06T01:15:12;3.45;;;1.67;;
26411;SDS011;59168;;;2022-07-06T01:22:37;3.45;;;1.50;;
26411;SDS011;59168;;;2022-07-06T01:25:04;3.25;;;1.23;;
26411;SDS011;59168;;;2022-07-06T01:27:31;4.13;;;1.05;;
26411;SDS011;59168;;;2022-07-06T01:29:59;2.35;;;0.98;;
26411;SDS011;59168;;;2022-07-06T01:32:25;2.53;;;0.82;;
26411;SDS011;59168;;;2022-07-06T01:34:50;2.65;;;1.00;;
26411;SDS011;59168;;;2022-07-06T01:37:16;3.20;;;1.30;;
26411;SDS011;59168;;;2022-07-06T01:39:42;4.25;;;1.42;;
26411;SDS011;59168;;;2022-07-06T01:42:07;4.78;;;1.63;;
26411;SDS011;59168;;;2022-07-06T01:44:33;4.93;;;2.20;;
26411;SDS011;59168;;;2022-07-06T01:46:58;5.75;;;1.70;;
26411;SDS011;59168;;;2022-07-06T01:49:24;15.20;;;1.60;;
26411;SDS011;59168;;;2022-07-06T01:51:50;5.10;;;1.42;;
26411;SDS011;59168;;;2022-07-06T01:54:15;3.28;;;1.30;;
26411;SDS011;59168;;;2022-07-06T01:56:41;3.28;;;1.30;;
26411;SDS011;59168;;;2022-07-06T01:59:06;2.33;;;1.17;;
26411;SDS011;59168;;;2022-07-06T02:01:32;2.58;;;1.00;;
26411;SDS011;59168;;;2022-07-06T02:03:57;2.15;;;1.00;;
26411;SDS011;59168;;;2022-07-06T02:06:23;2.60;;;1.20;;
26411;SDS011;59168;;;2022-07-06T02:08:49;2.00;;;1.08;;
26411;SDS011;59168;;;2022-07-06T02:11:16;5.28;;;1.38;;
26411;SDS011;59168;;;2022-07-06T02:13:42;3.38;;;1.10;;
26411;SDS011;59168;;;2022-07-06T02:16:07;6.18;;;1.52;;
26411;SDS011;59168;;;2022-07-06T02:18:33;3.03;;;1.35;;
26411;SDS011;59168;;;2022-07-06T02:20:59;5.05;;;1.10;;
26411;SDS011;59168;;;2022-07-06T02:23:25;3.65;;;1.17;;
26411;SDS011;59168;;;2022-07-06T02:25:51;2.38;;;0.95;;
26411;SDS011;59168;;;2022-07-06T02:28:17;3.00;;;1.25;;
26411;SDS011;59168;;;2022-07-06T02:30:42;2.88;;;1.10;;
26411;SDS011;59168;;;2022-07-06T02:33:08;2.78;;;1.20;;
26411;SDS011;59168;;;2022-07-06T02:35:33;3.85;;;1.58;;
26411;SDS011;59168;;;2022-07-06T02:37:59;3.55;;;1.10;;
26411;SDS011;59168;;;2022-07-06T02:40:25;4.07;;;1.13;;
26411;SDS011;59168;;;2022-07-06T02:42:50;3.58;;;1.42;;
26411;SDS011;59168;;;2022-07-06T02:45:16;1.92;;;1.10;;
26411;SDS011;59168;;;2022-07-06T02:47:42;3.70;;;1.02;;
26411;SDS011;59168;;;2022-07-06T02:50:07;2.17;;;1.05;;
26411;SDS011;59168;;;2022-07-06T02:52:33;4.28;;;1.30;;
26411;SDS011;59168;;;2022-07-06T02:54:59;5.13;;;1.38;;
26411;SDS011;59168;;;2022-07-06T02:57:24;3.58;;;1.35;;
26411;SDS011;59168;;;2022-07-06T02:59:50;3.63;;;1.40;;
26411;SDS011;59168;;;2022-07-06T03:02:16;3.95;;;1.42;;
26411;SDS011;59168;;;2022-07-06T03:04:42;2.75;;;1.30;;
26411;SDS011;59168;;;2022-07-06T03:07:07;3.30;;;1.02;;
26411;SDS011;59168;;;2022-07-06T03:09:33;2.55;;;1.50;;
26411;SDS011;59168;;;2022-07-06T03:11:59;3.90;;;1.42;;
26411;SDS011;59168;;;2022-07-06T03:14:24;3.58;;;1.70;;
26411;SDS011;59168;;;2022-07-06T03:16:51;3.08;;;1.58;;
26411;SDS011;59168;;;2022-07-06T03:19:17;4.55;;;1.90;;
26411;SDS011;59168;;;2022-07-06T03:21:42;6.03;;;2.00;;
26411;SDS011;59168;;;2022-07-06T03:24:09;5.63;;;1.90;;
26411;SDS011;59168;;;2022-07-06T03:26:34;2.63;;;1.70;;
26411;SDS011;59168;;;2022-07-06T03:29:00;4.82;;;2.20;;
26411;SDS011;59168;;;2022-07-06T03:31:25;6.40;;;2.22;;
26411;SDS011;59168;;;2022-07-06T03:33:51;3.70;;;2.00;;
26411;SDS011;59168;;;2022-07-06T03:36:17;2.10;;;1.70;;
26411;SDS011;59168;;;2022-07-06T03:38:43;3.10;;;1.67;;
26411;SDS011;59168;;;2022-07-06T03:41:09;5.60;;;2.10;;
26411;SDS011;59168;;;2022-07-06T03:43:34;4.00;;;1.83;;
26411;SDS011;59168;;;2022-07-06T03:46:00;3.65;;;1.98;;
26411;SDS011;59168;;;2022-07-06T03:48:26;4.78;;;2.13;;
26411;SDS011;59168;;;2022-07-06T03:50:52;4.43;;;1.73;;
26411;SDS011;59168;;;2022-07-06T03:53:17;3.30;;;1.30;;
26411;SDS011;59168;;;2022-07-06T03:55:43;5.53;;;1.63;;
26411;SDS011;59168;;;2022-07-06T03:58:29;3.47;;;1.60;;
26411;SDS011;59168;;;2022-07-06T04:00:55;5.85;;;1.48;;
26411;SDS011;59168;;;2022-07-06T04:03:20;4.63;;;1.52;;
26411;SDS011;59168;;;2022-07-06T04:05:46;2.63;;;1.40;;
26411;SDS011;59168;;;2022-07-06T04:08:11;7.05;;;1.60;;
26411;SDS011;59168;;;2022-07-06T04:10:37;3.35;;;1.52;;
26411;SDS011;59168;;;2022-07-06T04:13:02;5.18;;;1.50;;
26411;SDS011;59168;;;2022-07-06T04:15:28;3.22;;;1.25;;
26411;SDS011;59168;;;2022-07-06T04:17:54;5.43;;;1.60;;
26411;SDS011;59168;;;2022-07-06T04:20:21;7.22;;;1.63;;
26411;SDS011;59168;;;2022-07-06T04:22:47;2.35;;;1.10;;
26411;SDS011;59168;;;2022-07-06T04:25:14;3.90;;;1.52;;
26411;SDS011;59168;;;2022-07-06T04:27:40;1.65;;;1.23;;
26411;SDS011;59168;;;2022-07-06T04:30:07;3.60;;;1.10;;
26411;SDS011;59168;;;2022-07-06T04:32:33;3.70;;;1.33;;
26411;SDS011;59168;;;2022-07-06T04:34:59;5.55;;;1.23;;
26411;SDS011;59168;;;2022-07-06T04:37:25;4.72;;;1.10;;
26411;SDS011;59168;;;2022-07-06T04:39:51;2.70;;;0.98;;
26411;SDS011;59168;;;2022-07-06T04:42:16;3.88;;;1.13;;
26411;SDS011;59168;;;2022-07-06T04:44:42;2.80;;;0.93;;
26411;SDS011;59168;;;2022-07-06T04:47:08;3.63;;;1.20;;
26411;SDS011;59168;;;2022-07-06T04:49:34;3.17;;;0.93;;
26411;SDS011;59168;;;2022-07-06T04:51:59;5.68;;;1.15;;
26411;SDS011;59168;;;2022-07-06T04:54:25;2.53;;;1.10;;
26411;SDS011;59168;;;2022-07-06T04:56:50;4.05;;;0.90;;
26411;SDS011;59168;;;2022-07-06T04:59:16;4.18;;;1.02;;
26411;SDS011;59168;;;2022-07-06T05:01:41;2.72;;;1.02;;
26411;SDS011;59168;;;2022-07-06T05:04:07;3.45;;;1.10;;
26411;SDS011;59168;;;2022-07-06T05:06:33;3.10;;;1.00;;
26411;SDS011;59168;;;2022-07-06T05:08:59;4.72;;;1.05;;
26411;SDS011;59168;;;2022-07-06T05:11:28;2.03;;;1.00;;
26411;SDS011;59168;;;2022-07-06T05:13:53;2.05;;;0.90;;
26411;SDS011;59168;;;2022-07-06T05:16:20;2.78;;;0.80;;
26411;SDS011;59168;;;2022-07-06T05:18:46;3.58;;;0.80;;
26411;SDS011;59168;;;2022-07-06T05:21:11;2.70;;;0.90;;
26411;SDS011;59168;;;2022-07-06T05:23:37;3.58;;;0.90;;
26411;SDS011;59168;;;2022-07-06T05:26:03;4.32;;;0.90;;
26411;SDS011;59168;;;2022-07-06T05:28:28;2.53;;;0.68;;
26411;SDS011;59168;;;2022-07-06T05:30:54;5.15;;;0.98;;
26411;SDS011;59168;;;2022-07-06T05:33:20;2.80;;;0.80;;
26411;SDS011;59168;;;2022-07-06T05:35:45;4.45;;;0.90;;
26411;SDS011;59168;;;2022-07-06T05:38:11;3.55;;;1.08;;
26411;SDS011;59168;;;2022-07-06T05:40:37;2.67;;;0.70;;
26411;SDS011;59168;;;2022-07-06T05:43:02;5.00;;;0.80;;
26411;SDS011;59168;;;2022-07-06T05:45:28;6.75;;;1.05;;
26411;SDS011;59168;;;2022-07-06T05:47:54;3.05;;;0.70;;
26411;SDS011;59168;;;2022-07-06T05:50:39;1.65;;;0.63;;
26411;SDS011;59168;;;2022-07-06T05:53:05;2.40;;;0.60;;
26411;SDS011;59168;;;2022-07-06T05:55:31;4.82;;;0.77;;
26411;SDS011;59168;;;2022-07-06T05:57:57;3.35;;;0.80;;
26411;SDS011;59168;;;2022-07-06T06:00:23;3.40;;;0.90;;
26411;SDS011;59168;;;2022-07-06T06:02:50;3.65;;;0.70;;
26411;SDS011;59168;;;2022-07-06T06:05:16;2.92;;;0.82;;
26411;SDS011;59168;;;2022-07-06T06:07:42;1.00;;;0.50;;
26411;SDS011;59168;;;2022-07-06T06:10:09;1.75;;;0.70;;
26411;SDS011;59168;;;2022-07-06T06:12:36;2.40;;;0.88;;
26411;SDS011;59168;;;2022-07-06T06:15:02;2.40;;;0.75;;
26411;SDS011;59168;;;2022-07-06T06:17:28;4.47;;;1.00;;
26411;SDS011;59168;;;2022-07-06T06:19:54;1.98;;;0.90;;
26411;SDS011;59168;;;2022-07-06T06:22:19;2.22;;;0.80;;
26411;SDS011;59168;;;2022-07-06T06:24:45;3.55;;;1.00;;
26411;SDS011;59168;;;2022-07-06T06:27:11;1.88;;;0.63;;
26411;SDS011;59168;;;2022-07-06T06:29:37;3.22;;;0.88;;
26411;SDS011;59168;;;2022-07-06T06:32:03;1.70;;;0.90;;
26411;SDS011;59168;;;2022-07-06T06:34:30;2.35;;;0.85;;
26411;SDS011;59168;;;2022-07-06T06:36:56;3.13;;;1.00;;
26411;SDS011;59168;;;2022-07-06T06:39:22;2.15;;;0.80;;
26411;SDS011;59168;;;2022-07-06T06:41:48;3.38;;;0.80;;
26411;SDS011;59168;;;2022-07-06T06:44:13;3.05;;;0.90;;
26411;SDS011;59168;;;2022-07-06T06:46:39;3.92;;;1.00;;
26411;SDS011;59168;;;2022-07-06T06:49:06;6.18;;;1.48;;
26411;SDS011;59168;;;2022-07-06T06:51:32;2.67;;;0.93;;
26411;SDS011;59168;;;2022-07-06T06:53:58;5.53;;;1.10;;
26411;SDS011;59168;;;2022-07-06T06:56:24;4.22;;;1.17;;
26411;SDS011;59168;;;2022-07-06T06:58:50;2.80;;;1.00;;
26411;SDS011;59168;;;2022-07-06T07:01:15;2.58;;;0.70;;
26411;SDS011;59168;;;2022-07-06T07:03:41;1.95;;;0.80;;
26411;SDS011;59168;;;2022-07-06T07:06:06;4.63;;;0.88;;
26411;SDS011;59168;;;2022-07-06T07:08:32;5.47;;;1.05;;
26411;SDS011;59168;;;2022-07-06T07:10:58;3.30;;;0.80;;
26411;SDS011;59168;;;2022-07-06T07:13:24;4.18;;;0.70;;
26411;SDS011;59168;;;2022-07-06T07:15:49;3.30;;;1.10;;
26411;SDS011;59168;;;2022-07-06T07:18:15;3.40;;;1.00;;
26411;SDS011;59168;;;2022-07-06T07:20:40;4.45;;;1.30;;
26411;SDS011;59168;;;2022-07-06T07:23:06;2.85;;;1.00;;
26411;SDS011;59168;;;2022-07-06T07:25:32;3.28;;;0.98;;
26411;SDS011;59168;;;2022-07-06T07:27:57;4.07;;;0.95;;
26411;SDS011;59168;;;2022-07-06T07:30:23;6.55;;;1.02;;
26411;SDS011;59168;;;2022-07-06T07:32:48;3.72;;;1.08;;
26411;SDS011;59168;;;2022-07-06T07:35:14;3.05;;;1.10;;
26411;SDS011;59168;;;2022-07-06T07:37:40;3.42;;;1.00;;
26411;SDS011;59168;;;2022-07-06T07:40:05;2.20;;;0.85;;
26411;SDS011;59168;;;2022-07-06T07:42:32;1.85;;;0.80;;
26411;SDS011;59168;;;2022-07-06T07:44:57;2.92;;;0.95;;
26411;SDS011;59168;;;2022-07-06T07:47:23;2.13;;;0.93;;
26411;SDS011;59168;;;2022-07-06T07:49:49;2.15;;;0.98;;
26411;SDS011;59168;;;2022-07-06T07:52:14;2.25;;;0.70;;
26411;SDS011;59168;;;2022-07-06T07:54:40;3.33;;;0.90;;
26411;SDS011;59168;;;2022-07-06T07:57:06;1.77;;;0.88;;
26411;SDS011;59168;;;2022-07-06T07:59:31;4.07;;;0.75;;
26411;SDS011;59168;;;2022-07-06T08:01:57;2.58;;;0.93;;
26411;SDS011;59168;;;2022-07-06T08:04:23;1.45;;;0.50;;
26411;SDS011;59168;;;2022-07-06T08:06:49;5.68;;;0.60;;
26411;SDS011;59168;;;2022-07-06T08:09:14;2.30;;;0.60;;
26411;SDS011;59168;;;2022-07-06T08:11:41;2.15;;;0.52;;
26411;SDS011;59168;;;2022-07-06T08:14:07;2.90;;;0.60;;
26411;SDS011;59168;;;2022-07-06T08:16:33;2.78;;;0.70;;
26411;SDS011;59168;;;2022-07-06T08:18:59;2.05;;;0.70;;
26411;SDS011;59168;;;2022-07-06T08:21:25;1.48;;;0.52;;
26411;SDS011;59168;;;2022-07-06T08:23:50;1.70;;;0.75;;
26411;SDS011;59168;;;2022-07-06T08:26:16;2.75;;;0.60;;
26411;SDS011;59168;;;2022-07-06T08:28:42;3.50;;;0.60;;
26411;SDS011;59168;;;2022-07-06T08:31:08;3.47;;;0.73;;
26411;SDS011;59168;;;2022-07-06T08:33:33;2.88;;;0.63;;
26411;SDS011;59168;;;2022-07-06T08:35:59;5.22;;;0.80;;
26411;SDS011;59168;;;2022-07-06T08:38:24;1.65;;;0.60;;
26411;SDS011;59168;;;2022-07-06T08:40:50;2.22;;;0.70;;
26411;SDS011;59168;;;2022-07-06T08:43:16;1.55;;;0.60;;
26411;SDS011;59168;;;2022-07-06T08:45:42;4.63;;;0.63;;
26411;SDS011;59168;;;2022-07-06T08:48:10;4.05;;;0.82;;
26411;SDS011;59168;;;2022-07-06T08:50:36;5.05;;;0.70;;
26411;SDS011;59168;;;2022-07-06T08:53:02;2.05;;;0.60;;
26411;SDS011;59168;;;2022-07-06T08:55:28;3.40;;;0.88;;
26411;SDS011;59168;;;2022-07-06T08:57:55;1.55;;;0.45;;
26411;SDS011;59168;;;2022-07-06T09:00:22;2.15;;;0.82;;
26411;SDS011;59168;;;2022-07-06T09:02:49;1.30;;;0.60;;
26411;SDS011;59168;;;2022-07-06T09:05:16;1.17;;;0.45;;
26411;SDS011;59168;;;2022-07-06T09:07:43;4.03;;;0.60;;
26411;SDS011;59168;;;2022-07-06T09:10:13;4.90;;;0.80;;
26411;SDS011;59168;;;2022-07-06T09:12:38;3.95;;;1.25;;
26411;SDS011;59168;;;2022-07-06T09:15:04;2.60;;;1.00;;
26411;SDS011;59168;;;2022-07-06T09:17:30;3.05;;;0.60;;
26411;SDS011;59168;;;2022-07-06T09:19:56;2.22;;;0.60;;
26411;SDS011;59168;;;2022-07-06T09:22:40;1.20;;;0.40;;
26411;SDS011;59168;;;2022-07-06T09:25:07;3.45;;;0.47;;
26411;SDS011;59168;;;2022-07-06T09:27:41;1.52;;;0.50;;
26411;SDS011;59168;;;2022-07-06T09:30:08;3.15;;;0.52;;
26411;SDS011;59168;;;2022-07-06T09:32:38;1.70;;;0.40;;
26411;SDS011;59168;;;2022-07-06T09:35:06;2.50;;;0.60;;
26411;SDS011;59168;;;2022-07-06T09:37:32;1.38;;;0.40;;
26411;SDS011;59168;;;2022-07-06T09:39:57;2.03;;;0.50;;
26411;SDS011;59168;;;2022-07-06T09:42:26;4.38;;;0.55;;
26411;SDS011;59168;;;2022-07-06T09:44:53;2.15;;;0.70;;
26411;SDS011;59168;;;2022-07-06T09:47:19;3.95;;;0.50;;
26411;SDS011;59168;;;2022-07-06T09:49:45;2.45;;;0.50;;
26411;SDS011;59168;;;2022-07-06T09:52:13;3.28;;;0.60;;
26411;SDS011;59168;;;2022-07-06T09:54:39;5.82;;;0.80;;
26411;SDS011;59168;;;2022-07-06T09:57:06;2.47;;;0.57;;
26411;SDS011;59168;;;2022-07-06T09:59:34;3.25;;;0.57;;
26411;SDS011;59168;;;2022-07-06T10:02:03;3.03;;;0.68;;
26411;SDS011;59168;;;2022-07-06T10:04:30;2.58;;;0.65;;
26411;SDS011;59168;;;2022-07-06T10:06:57;0.90;;;0.50;;
26411;SDS011;59168;;;2022-07-06T10:09:24;2.75;;;0.77;;
26411;SDS011;59168;;;2022-07-06T10:14:20;3.33;;;0.40;;
26411;SDS011;59168;;;2022-07-06T10:16:47;1.83;;;0.45;;
26411;SDS011;59168;;;2022-07-06T10:19:14;1.55;;;0.40;;
26411;SDS011;59168;;;2022-07-06T10:21:41;1.90;;;0.80;;
26411;SDS011;59168;;;2022-07-06T10:24:08;3.05;;;0.50;;
26411;SDS011;59168;;;2022-07-06T10:26:34;1.80;;;0.40;;
26411;SDS011;59168;;;2022-07-06T10:29:01;0.55;;;0.35;;
26411;SDS011;59168;;;2022-07-06T10:31:30;2.25;;;0.45;;
26411;SDS011;59168;;;2022-07-06T10:34:03;0.85;;;0.43;;
26411;SDS011;59168;;;2022-07-06T10:36:36;2.45;;;0.60;;
26411;SDS011;59168;;;2022-07-06T10:39:02;2.35;;;0.50;;
26411;SDS011;59168;;;2022-07-06T10:41:48;1.70;;;0.30;;
26411;SDS011;59168;;;2022-07-06T10:44:14;3.17;;;0.70;;
26411;SDS011;59168;;;2022-07-06T10:46:41;2.25;;;0.50;;
26411;SDS011;59168;;;2022-07-06T10:49:14;1.38;;;0.52;;
26411;SDS011;59168;;;2022-07-06T10:51:41;1.38;;;0.50;;
26411;SDS011;59168;;;2022-07-06T10:54:07;2.08;;;0.40;;
26411;SDS011;59168;;;2022-07-06T10:59:13;1.77;;;0.52;;
26411;SDS011;59168;;;2022-07-06T11:04:41;1.05;;;0.38;;
26411;SDS011;59168;;;2022-07-06T11:07:12;1.98;;;0.35;;
26411;SDS011;59168;;;2022-07-06T11:09:40;3.75;;;0.55;;
26411;SDS011;59168;;;2022-07-06T11:14:43;1.77;;;0.60;;
26411;SDS011;59168;;;2022-07-06T11:17:10;1.35;;;0.40;;
26411;SDS011;59168;;;2022-07-06T11:19:36;3.40;;;0.75;;
26411;SDS011;59168;;;2022-07-06T11:22:06;1.00;;;0.63;;
26411;SDS011;59168;;;2022-07-06T11:24:34;5.10;;;1.23;;
26411;SDS011;59168;;;2022-07-06T11:27:03;2.15;;;0.95;;
26411;SDS011;59168;;;2022-07-06T11:29:31;1.35;;;0.77;;
26411;SDS011;59168;;;2022-07-06T11:32:00;1.95;;;0.60;;
26411;SDS011;59168;;;2022-07-06T11:34:32;2.38;;;0.73;;
26411;SDS011;59168;;;2022-07-06T11:37:01;1.05;;;0.60;;
26411;SDS011;59168;;;2022-07-06T11:39:35;3.67;;;0.68;;
26411;SDS011;59168;;;2022-07-06T11:42:05;3.03;;;1.13;;
26411;SDS011;59168;;;2022-07-06T11:44:31;1.45;;;0.57;;
26411;SDS011;59168;;;2022-07-06T11:46:58;3.85;;;0.52;;
26411;SDS011;59168;;;2022-07-06T11:49:27;1.65;;;0.40;;
26411;SDS011;59168;;;2022-07-06T11:51:53;2.72;;;0.80;;
26411;SDS011;59168;;;2022-07-06T11:54:20;0.93;;;0.50;;
26411;SDS011;59168;;;2022-07-06T11:59:34;2.70;;;0.70;;
26411;SDS011;59168;;;2022-07-06T12:02:01;3.47;;;0.70;;
26411;SDS011;59168;;;2022-07-06T12:04:28;1.55;;;0.80;;
26411;SDS011;59168;;;2022-07-06T12:07:01;1.65;;;0.95;;
26411;SDS011;59168;;;2022-07-06T12:09:32;2.60;;;0.57;;
26411;SDS011;59168;;;2022-07-06T12:11:59;2.53;;;0.70;;
26411;SDS011;59168;;;2022-07-06T12:14:30;1.52;;;0.60;;
26411;SDS011;59168;;;2022-07-06T12:17:02;2.92;;;0.60;;
26411;SDS011;59168;;;2022-07-06T12:19:32;4.28;;;0.50;;
26411;SDS011;59168;;;2022-07-06T12:21:58;3.28;;;0.60;;
26411;SDS011;59168;;;2022-07-06T12:24:24;0.80;;;0.50;;
26411;SDS011;59168;;;2022-07-06T12:26:55;1.08;;;0.30;;
26411;SDS011;59168;;;2022-07-06T12:29:21;1.23;;;0.30;;
26411;SDS011;59168;;;2022-07-06T12:31:48;1.05;;;0.40;;
26411;SDS011;59168;;;2022-07-06T12:34:23;3.72;;;0.50;;
26411;SDS011;59168;;;2022-07-06T12:36:57;1.88;;;0.50;;
26411;SDS011;59168;;;2022-07-06T12:39:24;3.15;;;0.60;;
26411;SDS011;59168;;;2022-07-06T12:41:53;3.08;;;0.60;;
26411;SDS011;59168;;;2022-07-06T12:44:22;4.32;;;0.52;;
26411;SDS011;59168;;;2022-07-06T12:47:04;0.88;;;0.50;;
26411;SDS011;59168;;;2022-07-06T12:49:31;1.58;;;0.68;;
26411;SDS011;59168;;;2022-07-06T12:51:59;2.42;;;0.70;;
26411;SDS011;59168;;;2022-07-06T12:54:32;1.85;;;1.35;;
26411;SDS011;59168;;;2022-07-06T12:57:06;3.17;;;2.17;;
26411;SDS011;59168;;;2022-07-06T12:59:38;5.95;;;3.72;;
26411;SDS011;59168;;;2022-07-06T13:04:53;4.45;;;2.55;;
26411;SDS011;59168;;;2022-07-06T13:07:24;4.20;;;2.97;;
26411;SDS011;59168;;;2022-07-06T13:09:50;6.03;;;4.03;;
26411;SDS011;59168;;;2022-07-06T13:12:16;7.55;;;4.65;;
26411;SDS011;59168;;;2022-07-06T13:14:42;6.20;;;4.38;;
26411;SDS011;59168;;;2022-07-06T13:17:08;7.93;;;5.25;;
26411;SDS011;59168;;;2022-07-06T13:19:33;5.85;;;5.18;;
26411;SDS011;59168;;;2022-07-06T13:21:59;8.25;;;5.50;;
26411;SDS011;59168;;;2022-07-06T13:24:25;9.32;;;6.93;;
26411;SDS011;59168;;;2022-07-06T13:26:53;11.20;;;8.00;;
26411;SDS011;59168;;;2022-07-06T13:29:18;12.38;;;8.77;;
26411;SDS011;59168;;;2022-07-06T13:31:44;12.65;;;7.70;;
26411;SDS011;59168;;;2022-07-06T13:34:10;9.63;;;7.22;;
26411;SDS011;59168;;;2022-07-06T13:36:35;10.70;;;8.20;;
26411;SDS011;59168;;;2022-07-06T13:39:02;11.60;;;8.05;;
26411;SDS011;59168;;;2022-07-06T13:41:28;10.02;;;7.53;;
26411;SDS011;59168;;;2022-07-06T13:43:54;9.77;;;7.30;;
26411;SDS011;59168;;;2022-07-06T13:46:20;11.60;;;7.57;;
26411;SDS011;59168;;;2022-07-06T13:48:46;10.10;;;6.88;;
26411;SDS011;59168;;;2022-07-06T13:51:12;8.98;;;6.18;;
26411;SDS011;59168;;;2022-07-06T13:53:38;9.48;;;6.85;;
26411;SDS011;59168;;;2022-07-06T13:56:04;10.15;;;6.57;;
26411;SDS011;59168;;;2022-07-06T13:58:30;12.32;;;6.65;;
26411;SDS011;59168;;;2022-07-06T14:00:56;6.30;;;4.82;;
26411;SDS011;59168;;;2022-07-06T14:03:21;8.20;;;4.63;;
26411;SDS011;59168;;;2022-07-06T14:05:52;7.18;;;4.57;;
26411;SDS011;59168;;;2022-07-06T14:08:19;7.00;;;4.55;;
26411;SDS011;59168;;;2022-07-06T14:10:45;7.45;;;4.00;;
26411;SDS011;59168;;;2022-07-06T14:13:10;7.22;;;2.55;;
26411;SDS011;59168;;;2022-07-06T14:15:36;5.03;;;2.72;;
26411;SDS011;59168;;;2022-07-06T14:18:02;3.22;;;1.85;;
26411;SDS011;59168;;;2022-07-06T14:20:27;2.97;;;2.08;;
26411;SDS011;59168;;;2022-07-06T14:22:53;6.03;;;2.10;;
26411;SDS011;59168;;;2022-07-06T14:25:18;4.97;;;2.58;;
26411;SDS011;59168;;;2022-07-06T14:27:44;5.50;;;2.40;;
26411;SDS011;59168;;;2022-07-06T14:30:10;2.85;;;1.55;;
26411;SDS011;59168;;;2022-07-06T14:32:36;5.22;;;1.92;;
26411;SDS011;59168;;;2022-07-06T14:35:01;3.72;;;1.50;;
26411;SDS011;59168;;;2022-07-06T14:37:27;2.97;;;1.40;;
26411;SDS011;59168;;;2022-07-06T14:39:53;2.00;;;1.80;;
26411;SDS011;59168;;;2022-07-06T14:42:18;5.72;;;1.85;;
26411;SDS011;59168;;;2022-07-06T14:44:44;2.38;;;1.70;;
26411;SDS011;59168;;;2022-07-06T14:47:09;3.15;;;1.30;;
26411;SDS011;59168;;;2022-07-06T14:49:35;3.28;;;1.30;;
26411;SDS011;59168;;;2022-07-06T14:52:01;4.18;;;1.95;;
26411;SDS011;59168;;;2022-07-06T14:54:27;5.13;;;2.63;;
26411;SDS011;59168;;;2022-07-06T14:56:56;6.88;;;2.63;;
26411;SDS011;59168;;;2022-07-06T14:59:21;9.77;;;2.45;;
26411;SDS011;59168;;;2022-07-06T15:01:47;4.30;;;2.80;;
26411;SDS011;59168;;;2022-07-06T15:04:12;6.35;;;2.30;;
26411;SDS011;59168;;;2022-07-06T15:06:38;7.38;;;2.75;;
26411;SDS011;59168;;;2022-07-06T15:09:04;4.22;;;1.85;;
26411;SDS011;59168;;;2022-07-06T15:11:30;5.25;;;2.20;;
26411;SDS011;59168;;;2022-07-06T15:13:56;5.28;;;2.30;;
26411;SDS011;59168;;;2022-07-06T15:16:21;4.28;;;1.60;;
26411;SDS011;59168;;;2022-07-06T15:18:47;2.30;;;1.40;;
26411;SDS011;59168;;;2022-07-06T15:21:13;3.75;;;1.83;;
26411;SDS011;59168;;;2022-07-06T15:23:38;4.90;;;1.50;;
26411;SDS011;59168;;;2022-07-06T15:26:04;6.00;;;1.50;;
26411;SDS011;59168;;;2022-07-06T15:28:30;1.90;;;0.98;;
26411;SDS011;59168;;;2022-07-06T15:30:56;5.25;;;1.13;;
26411;SDS011;59168;;;2022-07-06T15:33:21;3.05;;;1.00;;
26411;SDS011;59168;;;2022-07-06T15:35:47;3.90;;;1.23;;
26411;SDS011;59168;;;2022-07-06T15:38:13;2.28;;;1.10;;
26411;SDS011;59168;;;2022-07-06T15:40:39;5.03;;;1.35;;
26411;SDS011;59168;;;2022-07-06T15:43:09;3.53;;;0.93;;
26411;SDS011;59168;;;2022-07-06T15:45:35;3.45;;;0.75;;
26411;SDS011;59168;;;2022-07-06T15:48:01;1.83;;;0.70;;
26411;SDS011;59168;;;2022-07-06T15:50:28;2.72;;;0.65;;
26411;SDS011;59168;;;2022-07-06T15:52:55;1.95;;;1.00;;
26411;SDS011;59168;;;2022-07-06T15:55:20;2.40;;;0.60;;
26411;SDS011;59168;;;2022-07-06T15:57:46;1.42;;;0.68;;
26411;SDS011;59168;;;2022-07-06T16:00:13;6.50;;;1.20;;
26411;SDS011;59168;;;2022-07-06T16:02:39;2.22;;;0.82;;
26411;SDS011;59168;;;2022-07-06T16:05:05;3.00;;;1.50;;
26411;SDS011;59168;;;2022-07-06T16:07:31;3.83;;;1.20;;
26411;SDS011;59168;;;2022-07-06T16:09:57;2.15;;;0.73;;
26411;SDS011;59168;;;2022-07-06T16:12:24;4.47;;;0.80;;
26411;SDS011;59168;;;2022-07-06T16:14:49;2.08;;;1.35;;
26411;SDS011;59168;;;2022-07-06T16:17:15;5.07;;;1.15;;
26411;SDS011;59168;;;2022-07-06T16:19:41;3.22;;;0.73;;
26411;SDS011;59168;;;2022-07-06T16:22:06;3.05;;;0.60;;
26411;SDS011;59168;;;2022-07-06T16:24:32;1.27;;;0.52;;
26411;SDS011;59168;;;2022-07-06T16:26:57;2.22;;;0.80;;
26411;SDS011;59168;;;2022-07-06T16:29:23;3.17;;;0.60;;
26411;SDS011;59168;;;2022-07-06T16:31:49;4.18;;;0.60;;
26411;SDS011;59168;;;2022-07-06T16:34:14;1.35;;;0.50;;
26411;SDS011;59168;;;2022-07-06T16:36:40;1.73;;;0.50;;
26411;SDS011;59168;;;2022-07-06T16:39:06;2.00;;;0.60;;
26411;SDS011;59168;;;2022-07-06T16:41:32;2.67;;;0.90;;
26411;SDS011;59168;;;2022-07-06T16:43:57;1.90;;;0.82;;
26411;SDS011;59168;;;2022-07-06T16:46:23;3.67;;;1.00;;
26411;SDS011;59168;;;2022-07-06T16:48:49;2.35;;;0.65;;
26411;SDS011;59168;;;2022-07-06T16:51:14;2.95;;;0.70;;
26411;SDS011;59168;;;2022-07-06T16:53:40;2.85;;;0.68;;
26411;SDS011;59168;;;2022-07-06T16:56:06;2.20;;;0.40;;
26411;SDS011;59168;;;2022-07-06T16:58:31;1.20;;;0.40;;
26411;SDS011;59168;;;2022-07-06T17:00:58;1.70;;;0.55;;
26411;SDS011;59168;;;2022-07-06T17:03:24;1.17;;;0.40;;
26411;SDS011;59168;;;2022-07-06T17:05:50;1.55;;;0.40;;
26411;SDS011;59168;;;2022-07-06T17:08:16;1.45;;;0.75;;
26411;SDS011;59168;;;2022-07-06T17:10:41;3.28;;;0.60;;
26411;SDS011;59168;;;2022-07-06T17:13:07;1.17;;;0.60;;
26411;SDS011;59168;;;2022-07-06T17:15:33;1.98;;;0.52;;
26411;SDS011;59168;;;2022-07-06T17:17:59;1.58;;;0.43;;
26411;SDS011;59168;;;2022-07-06T17:20:25;3.80;;;0.60;;
26411;SDS011;59168;;;2022-07-06T17:22:51;2.53;;;0.70;;
26411;SDS011;59168;;;2022-07-06T17:25:17;1.40;;;0.50;;
26411;SDS011;59168;;;2022-07-06T17:27:42;2.00;;;0.60;;
26411;SDS011;59168;;;2022-07-06T17:30:08;1.85;;;0.55;;
26411;SDS011;59168;;;2022-07-06T17:32:34;3.08;;;0.50;;
26411;SDS011;59168;;;2022-07-06T17:35:00;2.00;;;0.45;;
26411;SDS011;59168;;;2022-07-06T17:37:25;1.58;;;0.47;;
26411;SDS011;59168;;;2022-07-06T17:39:51;1.52;;;0.55;;
26411;SDS011;59168;;;2022-07-06T17:42:17;3.20;;;0.70;;
26411;SDS011;59168;;;2022-07-06T17:44:45;1.77;;;0.50;;
26411;SDS011;59168;;;2022-07-06T17:47:11;2.20;;;0.93;;
26411;SDS011;59168;;;2022-07-06T17:49:37;3.67;;;0.98;;
26411;SDS011;59168;;;2022-07-06T17:52:02;2.13;;;0.70;;
26411;SDS011;59168;;;2022-07-06T17:54:28;0.88;;;0.52;;
26411;SDS011;59168;;;2022-07-06T17:56:54;2.65;;;0.77;;
26411;SDS011;59168;;;2022-07-06T17:59:20;1.08;;;0.43;;
26411;SDS011;59168;;;2022-07-06T18:01:46;2.67;;;0.50;;